Time;durP1;ratioP1;P1;durP2;ratioP2;P2;SDS_P1;SDS_P2;PMS_P1;PMS_P2;Temp;Humidity;BMP_temperature;BMP_pressure;BME280_temperature;BME280_humidity;BME280_pressure;Samples;Min_cycle;Max_cycle;Signal;HPM_P1;HPM_P2
2023/07/02 00:00:59;;;;;;;6.10;5.50;;;16.40;1.00;;;;;;5057307;28;20196;-73
2023/07/02 00:03:25;;;;;;;6.80;5.38;;;16.40;83.90;;;;;;5057923;28;20721;-73
2023/07/02 00:05:54;;;;;;;10.68;5.50;;;16.30;99.90;;;;;;5046705;28;20205;-73
2023/07/02 00:08:21;;;;;;;5.90;5.40;;;16.30;1.00;;;;;;5046182;28;20538;-72
2023/07/02 00:10:47;;;;;;;5.80;5.25;;;16.40;1.00;;;;;;5046421;28;20170;-73
2023/07/02 00:13:12;;;;;;;5.53;5.03;;;16.40;1.00;;;;;;5052575;28;20249;-74
2023/07/02 00:15:38;;;;;;;8.65;5.70;;;16.40;31.80;;;;;;5047477;28;20224;-75
2023/07/02 00:18:04;;;;;;;6.25;5.28;;;16.60;1.00;;;;;;5051289;28;20843;-73
2023/07/02 00:20:30;;;;;;;5.10;4.68;;;16.50;1.00;;;;;;5032814;28;20188;-73
2023/07/02 00:22:56;;;;;;;5.10;4.70;;;16.50;99.90;;;;;;5029525;28;20182;-73
2023/07/02 00:25:21;;;;;;;6.35;5.15;;;16.50;99.90;;;;;;5046961;28;20206;-73
2023/07/02 00:27:47;;;;;;;5.13;4.63;;;16.40;99.90;;;;;;5052106;28;20578;-73
2023/07/02 00:30:13;;;;;;;5.18;4.70;;;16.40;99.90;;;;;;5045507;28;20186;-73
2023/07/02 00:32:39;;;;;;;4.88;4.40;;;16.50;99.90;;;;;;5053294;28;20186;-73
2023/07/02 00:35:05;;;;;;;4.93;4.45;;;16.40;1.00;;;;;;5032613;28;20672;-73
2023/07/02 00:37:30;;;;;;;4.85;4.43;;;16.50;99.90;;;;;;5052641;28;20555;-73
2023/07/02 00:39:56;;;;;;;5.15;4.30;;;16.50;99.90;;;;;;5060553;28;20178;-73
2023/07/02 00:42:23;;;;;;;5.80;4.18;;;16.40;99.90;;;;;;5050649;28;20228;-74
2023/07/02 00:44:48;;;;;;;4.50;4.10;;;16.50;99.90;;;;;;5045851;28;20613;-73
2023/07/02 00:47:16;;;;;;;4.15;3.80;;;16.50;99.90;;;;;;5048592;28;20209;-73
2023/07/02 00:49:41;;;;;;;4.10;3.70;;;16.50;99.90;;;;;;5052643;28;20181;-73
2023/07/02 00:52:07;;;;;;;4.10;3.80;;;16.50;1.00;;;;;;5051610;28;20603;-73
2023/07/02 00:54:33;;;;;;;4.65;3.80;;;16.50;1.00;;;;;;5033447;28;20305;-74
2023/07/02 00:57:02;;;;;;;4.10;3.70;;;16.50;1.00;;;;;;5054829;28;20232;-74
2023/07/02 00:59:29;;;;;;;4.10;3.58;;;16.50;1.00;;;;;;5049150;28;20646;-73
2023/07/02 01:01:56;;;;;;;3.70;3.40;;;16.40;99.90;;;;;;5045048;28;20620;-73
2023/07/02 01:04:27;;;;;;;6.20;3.70;;;16.30;1.00;;;;;;5052981;28;20236;-74
2023/07/02 01:06:57;;;;;;;3.55;3.20;;;16.40;1.00;;;;;;5044694;28;20264;-74
2023/07/02 01:09:25;;;;;;;3.83;3.30;;;16.40;99.90;;;;;;5051601;28;20182;-73
2023/07/02 01:11:54;;;;;;;4.30;3.13;;;16.40;99.90;;;;;;5044382;28;20552;-75
2023/07/02 01:14:27;;;;;;;4.55;3.58;;;16.40;99.90;;;;;;5050754;28;20209;-72
2023/07/02 01:16:55;;;;;;;3.72;3.10;;;16.30;1.00;;;;;;5049044;28;20892;-74
2023/07/02 01:19:43;;;;;;;3.70;3.05;;;16.40;1.00;;;;;;5030654;28;20186;-73
2023/07/02 01:22:10;;;;;;;3.45;3.15;;;16.30;1.00;;;;;;5048207;28;20178;-73
2023/07/02 01:24:36;;;;;;;3.28;2.80;;;16.30;99.90;;;;;;5044473;28;20190;-73
2023/07/02 01:27:02;;;;;;;4.72;2.83;;;16.30;99.90;;;;;;5051315;28;20290;-73
2023/07/02 01:29:31;;;;;;;3.63;3.00;;;16.20;99.90;;;;;;5048756;28;20272;-73
2023/07/02 01:31:57;;;;;;;3.80;2.55;;;16.20;99.90;;;;;;5051022;28;20697;-74
2023/07/02 01:34:23;;;;;;;3.42;2.58;;;16.10;1.00;;;;;;5050912;28;20680;-73
2023/07/02 01:36:49;;;;;;;4.13;2.40;;;16.10;1.00;;;;;;5050772;28;20208;-73
2023/07/02 01:39:15;;;;;;;5.15;3.03;;;16.00;1.00;;;;;;5049297;28;20261;-73
2023/07/02 01:41:50;;;;;;;5.32;2.60;;;16.00;1.00;;;;;;5050804;28;20205;-74
2023/07/02 01:44:16;;;;;;;2.78;2.50;;;16.00;1.00;;;;;;5032006;28;20559;-74
2023/07/02 01:46:41;;;;;;;3.03;2.75;;;16.00;1.00;;;;;;5053754;28;20206;-73
2023/07/02 01:49:07;;;;;;;2.65;2.40;;;16.00;1.00;;;;;;5053034;28;20189;-73
2023/07/02 01:51:33;;;;;;;3.25;2.50;;;16.00;1.00;;;;;;5028462;28;20609;-74
2023/07/02 01:53:59;;;;;;;3.35;2.35;;;16.00;1.00;;;;;;5046416;28;20214;-73
2023/07/02 01:56:26;;;;;;;2.70;2.50;;;15.90;1.00;;;;;;5049210;28;20252;-75
2023/07/02 01:58:51;;;;;;;4.57;2.50;;;15.90;1.00;;;;;;5046268;28;20259;-75
2023/07/02 02:01:17;;;;;;;4.00;2.20;;;15.90;1.00;;;;;;5031321;28;20710;-74
2023/07/02 02:03:42;;;;;;;2.50;2.30;;;15.80;1.00;;;;;;5050488;28;20595;-73
2023/07/02 02:06:08;;;;;;;3.03;2.83;;;15.70;1.00;;;;;;5049743;28;20656;-75
2023/07/02 02:08:34;;;;;;;2.20;2.00;;;15.70;1.00;;;;;;5044102;28;20308;-73
2023/07/02 02:11:00;;;;;;;3.58;2.80;;;15.60;1.00;;;;;;5051315;28;20246;-73
2023/07/02 02:13:26;;;;;;;3.38;2.45;;;15.60;57.70;;;;;;5046946;28;20193;-74
2023/07/02 02:15:52;;;;;;;3.30;2.80;;;15.60;99.90;;;;;;5049581;28;20461;-73
2023/07/02 02:18:17;;;;;;;3.35;3.00;;;15.50;99.90;;;;;;5053872;28;20211;-73
2023/07/02 02:20:43;;;;;;;3.20;2.60;;;15.50;99.90;;;;;;5050701;28;20208;-73
2023/07/02 02:23:08;;;;;;;3.17;2.88;;;15.60;99.90;;;;;;5026720;28;20194;-74
2023/07/02 02:25:34;;;;;;;4.43;2.50;;;15.60;85.30;;;;;;5048469;28;20209;-72
2023/07/02 02:28:00;;;;;;;3.75;2.42;;;15.50;28.80;;;;;;5049967;28;20556;-74
2023/07/02 02:30:25;;;;;;;2.88;2.50;;;15.40;99.90;;;;;;5044359;28;20190;-73
2023/07/02 02:32:51;;;;;;;4.40;2.55;;;15.30;99.90;;;;;;5046838;28;20757;-73
2023/07/02 02:35:16;;;;;;;4.15;2.70;;;15.30;99.90;;;;;;5056627;28;20711;-73
2023/07/02 02:37:42;;;;;;;3.67;2.83;;;15.20;1.00;;;;;;5050887;28;20197;-73
2023/07/02 02:40:11;;;;;;;2.50;2.30;;;15.30;99.90;;;;;;5043889;28;20265;-73
2023/07/02 02:42:36;;;;;;;4.57;2.63;;;15.20;99.90;;;;;;5046402;28;20649;-73
2023/07/02 02:45:03;;;;;;;3.33;2.70;;;15.20;99.90;;;;;;5048976;28;20189;-74
2023/07/02 02:47:28;;;;;;;3.20;2.65;;;15.20;1.00;;;;;;5046878;28;20213;-73
2023/07/02 02:49:54;;;;;;;2.72;2.40;;;15.10;1.00;;;;;;5047393;28;20182;-73
2023/07/02 02:52:19;;;;;;;5.30;2.80;;;15.10;1.00;;;;;;5043988;28;20186;-73
2023/07/02 02:54:46;;;;;;;3.33;2.90;;;15.20;1.00;;;;;;5048521;28;20212;-73
2023/07/02 02:57:11;;;;;;;3.47;2.80;;;15.10;1.00;;;;;;5044010;28;20214;-74
2023/07/02 02:59:37;;;;;;;3.85;3.33;;;15.10;1.00;;;;;;5051275;28;20193;-73
2023/07/02 03:02:03;;;;;;;4.38;3.42;;;15.00;1.00;;;;;;5049829;28;20190;-74
2023/07/02 03:04:29;;;;;;;6.05;2.78;;;14.90;1.00;;;;;;5047133;28;20193;-73
2023/07/02 03:06:55;;;;;;;2.70;2.50;;;14.80;1.00;;;;;;5049454;28;20673;-74
2023/07/02 03:09:21;;;;;;;2.70;2.50;;;14.70;99.90;;;;;;5056351;28;20203;-74
2023/07/02 03:11:47;;;;;;;3.25;2.95;;;14.70;99.90;;;;;;5048735;28;20645;-74
2023/07/02 03:14:14;;;;;;;5.88;2.88;;;14.70;99.90;;;;;;5048590;28;20301;-74
2023/07/02 03:16:40;;;;;;;3.35;3.00;;;14.70;1.00;;;;;;5049003;28;20249;-73
2023/07/02 03:19:06;;;;;;;2.70;2.50;;;14.70;99.90;;;;;;5051754;28;20272;-74
2023/07/02 03:21:32;;;;;;;3.97;2.95;;;14.80;4.30;;;;;;5057520;28;20708;-73
2023/07/02 03:23:58;;;;;;;3.20;2.92;;;14.90;99.90;;;;;;5050859;28;20186;-73
2023/07/02 03:26:23;;;;;;;3.08;2.78;;;14.90;13.40;;;;;;5050876;28;20677;-73
2023/07/02 03:28:49;;;;;;;3.42;2.53;;;15.00;1.00;;;;;;5054582;28;20641;-73
2023/07/02 03:31:15;;;;;;;4.85;2.63;;;15.00;1.00;;;;;;5033809;28;21193;-73
2023/07/02 03:33:40;;;;;;;2.67;2.42;;;15.20;1.00;;;;;;5055446;28;20181;-73
2023/07/02 03:36:06;;;;;;;3.83;2.80;;;15.10;99.90;;;;;;5056310;28;20216;-74
2023/07/02 03:38:32;;;;;;;2.90;2.70;;;15.10;99.90;;;;;;5053274;28;20264;-72
2023/07/02 03:40:58;;;;;;;3.92;2.67;;;15.10;1.00;;;;;;5052499;28;20716;-73
2023/07/02 03:43:25;;;;;;;4.65;2.88;;;15.20;1.00;;;;;;5053115;28;20225;-73
2023/07/02 03:45:52;;;;;;;4.53;2.95;;;15.20;99.90;;;;;;5048080;28;20198;-73
2023/07/02 03:48:18;;;;;;;3.17;2.83;;;15.20;99.90;;;;;;5053852;28;20231;-74
2023/07/02 03:50:43;;;;;;;3.10;2.90;;;15.20;99.90;;;;;;5048897;28;20190;-74
2023/07/02 03:53:09;;;;;;;3.75;2.90;;;15.40;99.90;;;;;;5046757;28;20210;-74
2023/07/02 03:55:35;;;;;;;3.45;2.83;;;15.30;99.90;;;;;;5028204;28;20708;-73
2023/07/02 03:58:01;;;;;;;4.50;2.88;;;15.30;99.90;;;;;;5037795;28;20182;-73
2023/07/02 04:00:26;;;;;;;3.72;3.10;;;15.30;99.90;;;;;;5048998;28;20183;-74
2023/07/02 04:02:52;;;;;;;4.10;3.40;;;15.30;1.00;;;;;;5034535;28;20752;-73
2023/07/02 04:05:17;;;;;;;3.15;2.88;;;15.40;1.00;;;;;;5055868;28;20206;-73
2023/07/02 04:07:43;;;;;;;3.78;3.47;;;15.50;99.90;;;;;;5048939;28;20233;-73
2023/07/02 04:10:09;;;;;;;3.72;3.38;;;15.50;99.90;;;;;;5051434;28;20186;-73
2023/07/02 04:12:34;;;;;;;3.70;3.40;;;15.50;99.90;;;;;;5031983;28;20610;-75
2023/07/02 04:15:00;;;;;;;3.67;3.45;;;15.50;99.90;;;;;;5054906;28;20296;-74
2023/07/02 04:17:25;;;;;;;4.45;3.55;;;15.50;1.00;;;;;;5045799;28;20194;-73
2023/07/02 04:19:54;;;;;;;5.13;3.80;;;15.50;1.00;;;;;;5053237;28;20209;-76
2023/07/02 04:22:20;;;;;;;3.60;3.30;;;15.40;1.00;;;;;;5046334;28;20218;-74
2023/07/02 04:24:48;;;;;;;3.78;3.38;;;15.50;1.00;;;;;;5055416;28;20189;-73
2023/07/02 04:27:17;;;;;;;3.78;3.40;;;15.50;1.00;;;;;;5049901;28;20201;-73
2023/07/02 04:29:43;;;;;;;3.60;3.30;;;15.70;1.00;;;;;;5052057;28;20893;-73
2023/07/02 04:32:09;;;;;;;3.15;2.85;;;15.80;99.90;;;;;;5046276;28;20194;-73
2023/07/02 04:34:36;;;;;;;3.50;3.30;;;16.00;1.00;;;;;;5054457;28;20567;-73
2023/07/02 04:37:03;;;;;;;4.60;3.53;;;16.20;1.00;;;;;;5047875;28;20202;-73
2023/07/02 04:39:28;;;;;;;3.50;3.20;;;16.20;1.00;;;;;;5052744;28;20619;-73
2023/07/02 04:41:54;;;;;;;3.20;3.00;;;16.20;99.90;;;;;;5045135;28;20189;-73
2023/07/02 04:44:22;;;;;;;4.68;3.78;;;16.10;99.90;;;;;;5047822;28;20704;-74
2023/07/02 04:46:48;;;;;;;4.43;4.03;;;16.00;1.00;;;;;;5049090;28;20288;-74
2023/07/02 04:49:14;;;;;;;4.40;4.10;;;16.10;1.00;;;;;;5054607;28;20240;-74
2023/07/02 04:51:40;;;;;;;5.07;4.45;;;16.00;1.00;;;;;;5046682;28;20189;-73
2023/07/02 04:54:05;;;;;;;4.47;4.07;;;16.00;1.00;;;;;;5028874;28;20217;-74
2023/07/02 04:56:31;;;;;;;4.60;4.20;;;16.00;1.00;;;;;;5051820;28;20229;-73
2023/07/02 04:58:56;;;;;;;5.30;4.90;;;16.00;1.00;;;;;;5064177;28;20649;-73
2023/07/02 05:01:22;;;;;;;5.90;5.40;;;16.00;1.00;;;;;;5046948;28;20232;-73
2023/07/02 05:03:48;;;;;;;5.28;4.80;;;16.00;1.00;;;;;;5058527;28;20190;-73
2023/07/02 05:06:14;;;;;;;5.65;5.25;;;16.10;1.00;;;;;;5026710;28;20642;-73
2023/07/02 05:08:39;;;;;;;4.80;4.50;;;16.10;1.00;;;;;;5048856;28;20260;-73
2023/07/02 05:11:05;;;;;;;5.35;4.85;;;16.10;1.00;;;;;;5051073;28;20186;-74
2023/07/02 05:13:30;;;;;;;4.97;4.63;;;16.20;1.00;;;;;;5045411;28;20181;-73
2023/07/02 05:15:56;;;;;;;5.57;5.15;;;16.20;1.00;;;;;;5051425;28;20206;-74
2023/07/02 05:18:22;;;;;;;5.72;5.15;;;16.20;1.00;;;;;;5048254;28;20638;-73
2023/07/02 05:20:47;;;;;;;6.40;5.80;;;16.20;1.00;;;;;;5048956;28;20190;-73
2023/07/02 05:23:13;;;;;;;6.00;5.47;;;16.20;1.00;;;;;;5049516;28;20720;-73
2023/07/02 05:25:38;;;;;;;6.03;5.55;;;16.20;1.00;;;;;;5052597;28;20210;-73
2023/07/02 05:28:04;;;;;;;6.30;5.70;;;16.30;1.00;;;;;;5047609;28;20510;-73
2023/07/02 05:30:30;;;;;;;5.63;5.20;;;16.30;1.00;;;;;;5043762;28;20222;-73
2023/07/02 05:32:55;;;;;;;7.00;6.40;;;16.30;1.00;;;;;;5046981;28;20703;-73
2023/07/02 05:35:21;;;;;;;6.53;6.03;;;16.30;1.00;;;;;;5048273;28;20228;-73
2023/07/02 05:37:46;;;;;;;6.82;6.32;;;16.30;1.00;;;;;;5044732;28;20180;-73
2023/07/02 05:40:12;;;;;;;7.15;6.47;;;16.30;1.00;;;;;;5048372;28;20185;-73
2023/07/02 05:42:37;;;;;;;7.25;6.70;;;16.30;1.00;;;;;;5035392;28;20181;-74
2023/07/02 05:45:03;;;;;;;7.20;6.65;;;16.30;1.00;;;;;;5026754;28;20182;-75
2023/07/02 05:47:29;;;;;;;8.35;7.75;;;16.20;1.00;;;;;;5052680;28;20551;-74
2023/07/02 05:49:54;;;;;;;8.40;7.60;;;16.30;1.00;;;;;;5051776;28;20228;-73
2023/07/02 05:52:20;;;;;;;8.98;8.30;;;16.20;16.00;;;;;;5051014;28;20190;-73
2023/07/02 05:54:45;;;;;;;10.60;9.80;;;16.20;1.00;;;;;;5054313;28;20206;-73
2023/07/02 05:57:11;;;;;;;10.73;9.80;;;16.20;59.20;;;;;;5047019;28;20210;-73
2023/07/02 05:59:38;;;;;;;12.20;10.27;;;16.00;99.90;;;;;;5053344;28;20189;-72
2023/07/02 06:02:03;;;;;;;9.43;8.43;;;15.90;1.00;;;;;;5048817;28;20252;-72
2023/07/02 06:04:29;;;;;;;8.93;7.30;;;15.60;1.00;;;;;;5048181;28;20190;-73
2023/07/02 06:06:54;;;;;;;7.88;6.97;;;15.30;50.00;;;;;;5048650;28;20253;-73
2023/07/02 06:09:20;;;;;;;10.15;6.93;;;15.20;99.90;;;;;;5049655;28;20185;-73
2023/07/02 06:11:45;;;;;;;12.15;7.25;;;15.20;1.00;;;;;;5044474;28;20700;-74
2023/07/02 06:14:11;;;;;;;13.73;7.65;;;15.10;99.90;;;;;;5052571;28;20224;-73
2023/07/02 06:16:37;;;;;;;12.60;6.97;;;15.00;99.90;;;;;;5045559;28;20210;-73
2023/07/02 06:19:02;;;;;;;8.23;6.85;;;15.00;1.00;;;;;;5035696;28;20182;-73
2023/07/02 06:21:29;;;;;;;9.82;7.03;;;15.10;1.00;;;;;;5046204;28;20712;-73
2023/07/02 06:23:56;;;;;;;12.45;7.18;;;15.20;1.00;;;;;;5043832;28;20178;-74
2023/07/02 06:26:22;;;;;;;10.65;7.55;;;15.40;1.00;;;;;;5049293;28;20573;-73
2023/07/02 06:28:47;;;;;;;10.85;7.55;;;15.30;1.00;;;;;;5043620;28;20186;-74
2023/07/02 06:31:13;;;;;;;8.80;7.28;;;15.40;1.00;;;;;;5049689;28;20292;-74
2023/07/02 06:33:40;;;;;;;10.20;6.93;;;15.50;1.00;;;;;;5050428;28;20272;-73
2023/07/02 06:36:05;;;;;;;12.55;8.15;;;15.60;99.90;;;;;;5051802;28;20209;-75
2023/07/02 06:38:31;;;;;;;9.55;8.32;;;15.70;99.90;;;;;;5044739;28;20190;-73
2023/07/02 06:40:57;;;;;;;11.07;8.57;;;15.80;1.00;;;;;;5050943;28;20392;-73
2023/07/02 06:43:22;;;;;;;10.68;7.35;;;15.70;1.00;;;;;;5052405;28;20186;-73
2023/07/02 06:45:48;;;;;;;10.88;8.20;;;15.80;99.90;;;;;;5041543;28;20708;-74
2023/07/02 06:48:17;;;;;;;9.77;7.57;;;15.90;99.90;;;;;;5051430;28;20190;-74
2023/07/02 06:50:44;;;;;;;10.25;7.25;;;16.00;1.00;;;;;;5057041;28;20186;-73
2023/07/02 06:53:10;;;;;;;11.63;7.70;;;16.10;1.00;;;;;;5055807;28;20209;-74
2023/07/02 06:55:35;;;;;;;11.88;6.95;;;16.40;1.00;;;;;;5058472;28;20209;-73
2023/07/02 06:58:01;;;;;;;12.05;6.70;;;16.80;1.00;;;;;;5050060;28;20181;-73
2023/07/02 07:00:27;;;;;;;7.63;6.43;;;17.00;36.70;;;;;;5034280;28;20189;-74
2023/07/02 07:02:52;;;;;;;12.07;6.90;;;17.10;2.20;;;;;;5048616;28;20667;-74
2023/07/02 07:05:18;;;;;;;9.30;6.85;;;17.30;1.00;;;;;;5052294;28;20228;-73
2023/07/02 07:07:43;;;;;;;10.93;5.90;;;18.10;1.00;;;;;;5050893;28;20208;-74
2023/07/02 07:10:09;;;;;;;9.25;5.93;;;20.70;99.90;;;;;;5062492;28;20740;-74
2023/07/02 07:12:35;;;;;;;10.82;6.00;;;23.00;1.00;;;;;;5058315;28;20192;-73
2023/07/02 07:15:00;;;;;;;10.10;6.65;;;24.60;1.00;;;;;;5049899;28;20206;-74
2023/07/02 07:17:26;;;;;;;11.10;6.43;;;25.00;1.00;;;;;;5057839;28;20550;-73
2023/07/02 07:19:51;;;;;;;8.80;6.35;;;25.70;1.00;;;;;;5050033;28;20214;-73
2023/07/02 07:22:17;;;;;;;9.23;5.93;;;26.40;1.00;;;;;;5049976;28;20249;-73
2023/07/02 07:24:42;;;;;;;11.80;6.53;;;24.50;1.00;;;;;;5060119;28;20199;-74
2023/07/02 07:27:08;;;;;;;11.40;6.60;;;22.80;1.00;;;;;;5052255;28;20309;-73
2023/07/02 07:29:33;;;;;;;11.70;6.93;;;21.00;1.00;;;;;;5059351;28;20622;-74
2023/07/02 07:31:59;;;;;;;12.52;6.78;;;19.70;1.00;;;;;;5056939;28;20689;-74
2023/07/02 07:34:24;;;;;;;11.50;6.53;;;19.30;1.00;;;;;;5057739;28;20680;-73
2023/07/02 07:36:50;;;;;;;12.30;6.70;;;19.30;1.00;;;;;;5052624;28;20222;-72
2023/07/02 07:39:15;;;;;;;9.68;6.15;;;19.50;22.60;;;;;;5056138;28;20182;-73
2023/07/02 07:41:41;;;;;;;13.35;7.35;;;19.60;1.00;;;;;;5052115;28;20189;-74
2023/07/02 07:44:07;;;;;;;12.52;6.47;;;19.30;1.00;;;;;;5054723;28;20232;-73
2023/07/02 07:46:32;;;;;;;12.23;6.00;;;19.10;6.40;;;;;;5059415;28;20212;-72
2023/07/02 07:48:58;;;;;;;14.45;7.15;;;18.80;18.00;;;;;;5058218;28;20264;-74
2023/07/02 07:51:23;;;;;;;12.65;6.90;;;18.60;65.80;;;;;;5053145;28;20600;-73
2023/07/02 07:53:49;;;;;;;14.15;7.60;;;18.40;86.30;;;;;;5046580;28;20691;-74
2023/07/02 07:56:14;;;;;;;16.70;7.20;;;18.40;99.90;;;;;;5046928;28;20764;-72
2023/07/02 07:58:40;;;;;;;12.75;7.40;;;18.50;99.90;;;;;;5053499;28;20307;-74
2023/07/02 08:01:05;;;;;;;11.07;6.82;;;18.50;99.90;;;;;;5046419;28;20272;-73
2023/07/02 08:03:31;;;;;;;9.57;6.10;;;18.70;99.90;;;;;;5052180;28;20194;-73
2023/07/02 08:05:56;;;;;;;12.13;6.82;;;18.90;99.90;;;;;;5032972;28;20206;-73
2023/07/02 08:08:22;;;;;;;11.85;6.63;;;19.00;99.90;;;;;;5029183;28;20190;-73
2023/07/02 08:10:49;;;;;;;10.50;6.55;;;18.80;93.10;;;;;;5046128;28;20272;-73
2023/07/02 08:13:17;;;;;;;10.68;6.45;;;18.90;99.90;;;;;;5048217;28;20174;-73
2023/07/02 08:15:42;;;;;;;10.85;6.15;;;19.20;99.90;;;;;;5046430;28;20217;-74
2023/07/02 08:18:09;;;;;;;13.77;6.90;;;19.30;94.30;;;;;;5046073;28;20986;-74
2023/07/02 08:20:35;;;;;;;9.63;6.20;;;19.30;89.50;;;;;;5058854;28;20182;-73
2023/07/02 08:23:00;;;;;;;9.38;6.28;;;19.10;71.60;;;;;;5049122;28;20612;-74
2023/07/02 08:25:27;;;;;;;9.07;6.22;;;19.20;53.30;;;;;;5049616;28;20652;-73
2023/07/02 08:27:52;;;;;;;13.00;6.65;;;19.50;27.00;;;;;;5056934;28;20171;-74
2023/07/02 08:30:18;;;;;;;11.13;6.13;;;19.60;1.00;;;;;;5045539;28;20204;-73
2023/07/02 08:32:43;;;;;;;10.20;6.32;;;19.30;1.00;;;;;;5051112;28;20192;-73
2023/07/02 08:35:09;;;;;;;8.95;5.78;;;19.30;1.00;;;;;;5056942;28;20213;-73
2023/07/02 08:37:34;;;;;;;11.30;5.78;;;19.30;1.00;;;;;;5054551;28;20190;-73
2023/07/02 08:40:00;;;;;;;10.52;6.30;;;19.00;1.00;;;;;;5058676;28;20182;-74
2023/07/02 08:42:29;;;;;;;12.32;5.90;;;18.60;1.00;;;;;;5048927;28;20182;-74
2023/07/02 08:44:57;;;;;;;9.75;5.78;;;18.40;1.00;;;;;;5052195;28;20207;-74
2023/07/02 08:47:23;;;;;;;9.90;6.35;;;18.20;1.00;;;;;;5033061;28;20197;-74
2023/07/02 08:49:49;;;;;;;12.20;7.03;;;18.30;1.00;;;;;;5053905;28;20642;-73
2023/07/02 08:52:15;;;;;;;10.85;6.43;;;18.30;1.00;;;;;;5051762;28;20192;-73
2023/07/02 08:54:42;;;;;;;13.13;6.22;;;18.10;1.00;;;;;;5035235;28;20214;-73
2023/07/02 08:57:09;;;;;;;9.43;6.40;;;18.00;1.00;;;;;;5048721;28;20198;-73
2023/07/02 08:59:38;;;;;;;11.32;6.40;;;18.10;1.00;;;;;;5031806;28;20181;-73
2023/07/02 09:02:04;;;;;;;13.57;6.93;;;18.20;1.00;;;;;;5051045;28;20182;-73
2023/07/02 09:04:29;;;;;;;12.80;6.10;;;18.50;1.00;;;;;;5048557;28;20198;-74
2023/07/02 09:07:06;;;;;;;10.15;6.45;;;18.50;1.00;;;;;;5051874;28;20784;-73
2023/07/02 09:09:31;;;;;;;11.57;6.70;;;18.60;1.00;;;;;;5048877;28;20189;-75
2023/07/02 09:11:57;;;;;;;11.20;6.30;;;18.60;1.00;;;;;;5034322;28;20551;-73
2023/07/02 09:14:31;;;;;;;10.82;6.55;;;18.60;1.00;;;;;;5046376;28;20304;-75
2023/07/02 09:17:06;;;;;;;11.98;6.82;;;18.60;1.00;;;;;;5051369;28;20206;-73
2023/07/02 09:19:32;;;;;;;14.32;6.57;;;18.60;1.00;;;;;;5051258;28;20876;-74
2023/07/02 09:22:00;;;;;;;11.63;6.40;;;18.60;1.00;;;;;;5053576;28;20182;-74
2023/07/02 09:24:26;;;;;;;14.25;7.20;;;18.60;1.00;;;;;;5048476;28;20189;-73
2023/07/02 09:26:54;;;;;;;12.82;6.50;;;18.50;1.00;;;;;;5050745;28;20201;-75
2023/07/02 09:29:32;;;;;;;11.55;6.57;;;18.60;1.00;;;;;;5031817;28;20190;-74
2023/07/02 09:32:00;;;;;;;9.95;6.60;;;18.60;1.00;;;;;;5044161;28;20182;-74
2023/07/02 09:34:37;;;;;;;11.10;6.40;;;18.60;1.00;;;;;;5045365;28;20680;-73
2023/07/02 09:37:04;;;;;;;10.73;6.30;;;18.50;1.00;;;;;;5050181;28;20224;-74
2023/07/02 09:39:32;;;;;;;15.02;6.90;;;18.70;1.00;;;;;;5047459;28;20193;-73
2023/07/02 09:42:00;;;;;;;12.85;7.03;;;18.90;1.00;;;;;;5044528;28;20178;-73
2023/07/02 09:44:31;;;;;;;13.05;6.78;;;19.00;1.00;;;;;;5046136;28;20610;-74
2023/07/02 09:47:04;;;;;;;11.65;7.35;;;19.10;1.00;;;;;;5028944;28;20198;-73
2023/07/02 09:49:35;;;;;;;10.27;6.65;;;19.30;1.00;;;;;;5044691;28;20194;-73
2023/07/02 09:52:06;;;;;;;13.50;7.55;;;19.60;1.00;;;;;;5050090;28;20234;-73
2023/07/02 09:54:32;;;;;;;12.73;6.95;;;19.50;1.00;;;;;;5050078;28;20305;-74
2023/07/02 09:57:01;;;;;;;12.27;7.03;;;19.30;1.00;;;;;;5048592;28;20225;-73
2023/07/02 09:59:28;;;;;;;12.18;7.20;;;19.20;1.00;;;;;;5047806;28;20629;-73
2023/07/02 10:01:54;;;;;;;13.02;6.82;;;19.10;1.00;;;;;;5050256;28;20450;-73
2023/07/02 10:04:23;;;;;;;10.25;7.03;;;19.10;1.00;;;;;;5052737;28;20185;-73
2023/07/02 10:06:54;;;;;;;14.68;7.18;;;19.20;1.00;;;;;;5034951;28;20202;-74
2023/07/02 10:09:21;;;;;;;11.45;6.93;;;19.10;1.00;;;;;;5047276;28;20182;-73
2023/07/02 10:11:47;;;;;;;12.70;7.55;;;19.40;1.00;;;;;;5044379;28;20546;-74
2023/07/02 10:14:14;;;;;;;10.32;6.80;;;19.80;1.00;;;;;;5049540;28;20320;-75
2023/07/02 10:16:53;;;;;;;14.95;6.82;;;20.20;1.00;;;;;;5049524;28;20277;-73
2023/07/02 10:19:19;;;;;;;13.23;7.15;;;20.50;1.00;;;;;;5050675;28;20186;-73
2023/07/02 10:21:50;;;;;;;14.77;7.00;;;20.20;1.00;;;;;;5049720;28;20188;-74
2023/07/02 10:24:17;;;;;;;12.32;6.80;;;20.20;1.00;;;;;;5045781;28;20547;-74
2023/07/02 10:26:58;;;;;;;11.90;6.45;;;20.10;1.00;;;;;;5062044;28;20683;-73
2023/07/02 10:29:25;;;;;;;11.85;7.28;;;19.70;1.00;;;;;;5050112;28;20186;-74
2023/07/02 10:31:53;;;;;;;10.23;6.47;;;19.50;1.00;;;;;;5044866;28;20170;-73
2023/07/02 10:34:31;;;;;;;15.02;6.85;;;19.30;1.00;;;;;;5056182;28;20633;-74
2023/07/02 10:36:56;;;;;;;10.70;6.95;;;19.20;1.00;;;;;;5043934;28;20610;-74
2023/07/02 10:39:22;;;;;;;13.25;6.65;;;19.10;1.00;;;;;;5044247;28;20190;-75
2023/07/02 10:41:49;;;;;;;15.27;6.95;;;19.20;1.00;;;;;;5056168;28;20205;-73
2023/07/02 10:44:15;;;;;;;11.27;6.63;;;19.50;1.00;;;;;;5051557;28;20780;-76
2023/07/02 10:46:48;;;;;;;13.57;6.78;;;19.60;1.00;;;;;;5028272;28;20205;-73
2023/07/02 10:49:18;;;;;;;11.07;6.63;;;19.60;1.00;;;;;;5050015;28;20996;-74
2023/07/02 10:51:43;;;;;;;10.65;6.80;;;19.60;1.00;;;;;;5046708;28;20715;-74
2023/07/02 10:54:09;;;;;;;13.10;7.10;;;19.60;1.00;;;;;;5049750;28;20214;-73
2023/07/02 10:56:35;;;;;;;13.48;6.63;;;19.60;1.00;;;;;;5031664;28;20205;-73
2023/07/02 10:59:01;;;;;;;11.05;5.97;;;19.60;1.00;;;;;;5048565;28;20205;-73
2023/07/02 11:01:28;;;;;;;12.90;6.57;;;19.70;1.00;;;;;;5046332;28;20228;-74
2023/07/02 11:04:04;;;;;;;12.63;7.03;;;19.50;1.00;;;;;;5047817;28;20572;-74
2023/07/02 11:06:32;;;;;;;11.90;7.00;;;19.40;1.00;;;;;;5046888;28;20202;-74
2023/07/02 11:08:58;;;;;;;11.80;6.20;;;19.40;1.00;;;;;;5043713;28;20177;-74
2023/07/02 11:11:24;;;;;;;10.60;6.65;;;19.40;1.00;;;;;;5025193;28;20190;-74
2023/07/02 11:13:51;;;;;;;12.70;7.30;;;19.50;1.00;;;;;;5050917;28;20186;-74
2023/07/02 11:16:25;;;;;;;11.50;6.55;;;19.50;1.00;;;;;;5053077;28;20259;-74
2023/07/02 11:18:53;;;;;;;11.68;6.20;;;19.60;1.00;;;;;;5043717;28;20607;-73
2023/07/02 11:21:18;;;;;;;12.07;5.85;;;19.80;1.00;;;;;;5042607;28;20261;-73
2023/07/02 11:23:44;;;;;;;9.10;5.75;;;19.90;1.00;;;;;;5045997;28;20603;-73
2023/07/02 11:26:10;;;;;;;16.73;6.10;;;19.90;1.00;;;;;;5044461;28;20202;-74
2023/07/02 11:28:35;;;;;;;10.63;5.95;;;19.90;1.00;;;;;;5046941;28;20558;-74
2023/07/02 11:31:03;;;;;;;9.27;5.82;;;20.00;1.00;;;;;;5053098;28;20737;-73
2023/07/02 11:33:40;;;;;;;10.57;6.22;;;20.20;1.00;;;;;;5041318;28;20711;-73
2023/07/02 11:36:06;;;;;;;12.77;5.95;;;20.60;1.00;;;;;;5055823;28;20224;-73
2023/07/02 11:38:36;;;;;;;11.57;6.60;;;20.90;1.00;;;;;;5050328;28;20744;-73
2023/07/02 11:41:04;;;;;;;9.30;5.95;;;21.00;1.00;;;;;;5049018;28;20198;-73
2023/07/02 11:43:30;;;;;;;10.25;5.63;;;20.70;1.00;;;;;;5046628;28;21543;-74
2023/07/02 11:45:56;;;;;;;10.25;6.35;;;20.30;1.00;;;;;;5055353;28;20212;-74
2023/07/02 11:48:21;;;;;;;9.98;5.88;;;20.00;1.00;;;;;;5056618;28;20195;-74
2023/07/02 11:50:47;;;;;;;9.90;5.80;;;19.80;1.00;;;;;;5052887;28;20449;-74
2023/07/02 11:53:12;;;;;;;11.80;5.45;;;19.80;1.00;;;;;;5053082;28;20206;-73
2023/07/02 11:55:38;;;;;;;12.27;6.32;;;19.80;1.00;;;;;;5052648;28;20293;-74
2023/07/02 11:58:04;;;;;;;8.80;5.30;;;20.00;1.00;;;;;;5044716;28;20178;-73
2023/07/02 12:00:29;;;;;;;9.65;5.22;;;20.30;1.00;;;;;;5040291;28;20186;-73
2023/07/02 12:02:55;;;;;;;10.30;5.60;;;20.40;1.00;;;;;;5046439;28;20174;-73
2023/07/02 12:05:21;;;;;;;8.20;5.45;;;20.60;1.00;;;;;;5046276;28;20210;-74
2023/07/02 12:07:46;;;;;;;11.25;5.55;;;20.80;1.00;;;;;;5046699;28;20188;-73
2023/07/02 12:10:12;;;;;;;10.52;6.07;;;21.10;1.00;;;;;;5060926;28;20177;-74
2023/07/02 12:12:38;;;;;;;8.82;5.22;;;21.30;1.00;;;;;;5049611;28;20226;-74
2023/07/02 12:15:04;;;;;;;8.35;5.15;;;21.50;1.00;;;;;;5048288;28;20206;-74
2023/07/02 12:17:29;;;;;;;9.10;5.07;;;21.60;1.00;;;;;;5050385;28;20274;-74
2023/07/02 12:19:55;;;;;;;7.63;5.13;;;21.60;1.00;;;;;;5054653;28;20261;-74
2023/07/02 12:22:22;;;;;;;6.22;4.70;;;21.40;1.00;;;;;;5045797;28;20232;-74
2023/07/02 12:24:49;;;;;;;8.02;5.05;;;21.10;1.00;;;;;;5054204;28;20185;-72
2023/07/02 12:27:15;;;;;;;8.93;5.05;;;21.10;1.00;;;;;;5052857;28;20205;-74
2023/07/02 12:29:41;;;;;;;9.20;5.35;;;21.40;1.00;;;;;;5046514;28;20190;-74
2023/07/02 12:32:07;;;;;;;8.80;5.00;;;21.60;1.00;;;;;;5054161;28;20558;-74
2023/07/02 12:34:32;;;;;;;11.80;5.95;;;21.70;1.00;;;;;;5054817;28;20571;-74
2023/07/02 12:36:58;;;;;;;10.70;5.45;;;21.50;1.00;;;;;;5048381;28;20709;-74
2023/07/02 12:39:23;;;;;;;9.63;5.15;;;21.20;1.00;;;;;;5034739;28;20192;-74
2023/07/02 12:41:49;;;;;;;7.97;4.68;;;20.90;1.00;;;;;;5027850;28;20182;-74
2023/07/02 12:44:15;;;;;;;10.20;5.72;;;20.80;1.00;;;;;;5029484;28;20190;-73
2023/07/02 12:46:41;;;;;;;8.05;4.97;;;20.80;1.00;;;;;;5050022;28;20206;-73